sensor_id;sensor_type;location;lat;lon;timestamp;P1;durP1;ratioP1;P2;durP2;ratioP2
9665;SDS011;4871;52.004;5.924;2022-10-31T00:00:01;7.00;;;5.00;;
9665;SDS011;4871;52.004;5.924;2022-10-31T00:01:00;7.00;;;5.00;;
9665;SDS011;4871;52.004;5.924;2022-10-31T00:02:00;7.00;;;5.00;;
9665;SDS011;4871;52.004;5.924;2022-10-31T00:03:00;7.00;;;5.00;;
9665;SDS011;4871;52.004;5.924;2022-10-31T00:04:00;7.00;;;5.00;;
9665;SDS011;4871;52.004;5.924;2022-10-31T00:05:00;7.00;;;5.00;;
9665;SDS011;4871;52.004;5.924;2022-10-31T00:06:01;7.00;;;5.00;;
9665;SDS011;4871;52.004;5.924;2022-10-31T00:07:00;7.00;;;5.00;;
9665;SDS011;4871;52.004;5.924;2022-10-31T00:08:00;7.00;;;5.00;;
9665;SDS011;4871;52.004;5.924;2022-10-31T00:09:00;7.00;;;5.00;;
9665;SDS011;4871;52.004;5.924;2022-10-31T00:10:00;7.00;;;5.00;;
9665;SDS011;4871;52.004;5.924;2022-10-31T00:11:00;7.00;;;5.00;;
9665;SDS011;4871;52.004;5.924;2022-10-31T00:12:00;7.00;;;5.00;;
9665;SDS011;4871;52.004;5.924;2022-10-31T00:13:00;7.00;;;5.00;;
9665;SDS011;4871;52.004;5.924;2022-10-31T00:14:00;7.00;;;5.00;;
9665;SDS011;4871;52.004;5.924;2022-10-31T00:15:00;7.00;;;5.00;;
9665;SDS011;4871;52.004;5.924;2022-10-31T00:16:00;7.00;;;5.00;;
9665;SDS011;4871;52.004;5.924;2022-10-31T00:17:00;7.00;;;5.00;;
9665;SDS011;4871;52.004;5.924;2022-10-31T00:18:00;7.00;;;5.00;;
9665;SDS011;4871;52.004;5.924;2022-10-31T00:19:01;7.00;;;5.00;;
9665;SDS011;4871;52.004;5.924;2022-10-31T00:20:00;7.00;;;5.00;;
9665;SDS011;4871;52.004;5.924;2022-10-31T00:21:00;6.90;;;5.40;;
9665;SDS011;4871;52.004;5.924;2022-10-31T00:22:00;6.90;;;5.40;;
9665;SDS011;4871;52.004;5.924;2022-10-31T00:23:00;6.90;;;5.40;;
9665;SDS011;4871;52.004;5.924;2022-10-31T00:24:00;6.90;;;5.40;;
9665;SDS011;4871;52.004;5.924;2022-10-31T00:25:00;6.90;;;5.40;;
9665;SDS011;4871;52.004;5.924;2022-10-31T00:26:00;6.90;;;5.40;;
9665;SDS011;4871;52.004;5.924;2022-10-31T00:27:00;6.90;;;5.40;;
9665;SDS011;4871;52.004;5.924;2022-10-31T00:28:00;6.90;;;5.40;;
9665;SDS011;4871;52.004;5.924;2022-10-31T00:29:00;6.90;;;5.40;;
9665;SDS011;4871;52.004;5.924;2022-10-31T00:30:00;6.90;;;5.40;;
9665;SDS011;4871;52.004;5.924;2022-10-31T00:31:00;6.90;;;5.40;;
9665;SDS011;4871;52.004;5.924;2022-10-31T00:32:00;6.90;;;5.40;;
9665;SDS011;4871;52.004;5.924;2022-10-31T00:33:00;6.90;;;5.40;;
9665;SDS011;4871;52.004;5.924;2022-10-31T00:34:02;6.90;;;5.40;;
9665;SDS011;4871;52.004;5.924;2022-10-31T00:35:00;6.90;;;5.40;;
9665;SDS011;4871;52.004;5.924;2022-10-31T00:36:00;6.90;;;5.40;;
9665;SDS011;4871;52.004;5.924;2022-10-31T00:37:00;6.90;;;5.40;;
9665;SDS011;4871;52.004;5.924;2022-10-31T00:38:00;6.90;;;5.40;;
9665;SDS011;4871;52.004;5.924;2022-10-31T00:39:01;6.90;;;5.40;;
9665;SDS011;4871;52.004;5.924;2022-10-31T00:40:00;6.90;;;5.40;;
9665;SDS011;4871;52.004;5.924;2022-10-31T00:41:00;6.90;;;5.40;;
9665;SDS011;4871;52.004;5.924;2022-10-31T00:42:00;6.90;;;5.40;;
9665;SDS011;4871;52.004;5.924;2022-10-31T00:43:00;6.90;;;5.40;;
9665;SDS011;4871;52.004;5.924;2022-10-31T00:44:00;6.90;;;5.40;;
9665;SDS011;4871;52.004;5.924;2022-10-31T00:45:00;6.90;;;5.40;;
9665;SDS011;4871;52.004;5.924;2022-10-31T00:46:00;6.90;;;5.40;;
9665;SDS011;4871;52.004;5.924;2022-10-31T00:47:00;6.90;;;5.40;;
9665;SDS011;4871;52.004;5.924;2022-10-31T00:48:00;6.90;;;5.40;;
9665;SDS011;4871;52.004;5.924;2022-10-31T00:49:00;6.90;;;5.40;;
9665;SDS011;4871;52.004;5.924;2022-10-31T00:50:00;6.90;;;5.40;;
9665;SDS011;4871;52.004;5.924;2022-10-31T00:51:00;7.20;;;5.10;;
9665;SDS011;4871;52.004;5.924;2022-10-31T00:52:00;7.20;;;5.10;;
9665;SDS011;4871;52.004;5.924;2022-10-31T00:53:00;7.20;;;5.10;;
9665;SDS011;4871;52.004;5.924;2022-10-31T00:54:00;7.20;;;5.10;;
9665;SDS011;4871;52.004;5.924;2022-10-31T00:55:00;7.20;;;5.10;;
9665;SDS011;4871;52.004;5.924;2022-10-31T00:56:00;7.20;;;5.10;;
9665;SDS011;4871;52.004;5.924;2022-10-31T00:57:00;7.20;;;5.10;;
9665;SDS011;4871;52.004;5.924;2022-10-31T00:58:00;7.20;;;5.10;;
9665;SDS011;4871;52.004;5.924;2022-10-31T00:59:00;7.20;;;5.10;;
9665;SDS011;4871;52.004;5.924;2022-10-31T01:00:00;7.20;;;5.10;;
9665;SDS011;4871;52.004;5.924;2022-10-31T01:01:00;7.20;;;5.10;;
9665;SDS011;4871;52.004;5.924;2022-10-31T01:02:00;7.20;;;5.10;;
9665;SDS011;4871;52.004;5.924;2022-10-31T01:03:00;7.20;;;5.10;;
9665;SDS011;4871;52.004;5.924;2022-10-31T01:04:00;7.20;;;5.10;;
9665;SDS011;4871;52.004;5.924;2022-10-31T01:05:00;7.20;;;5.10;;
9665;SDS011;4871;52.004;5.924;2022-10-31T01:07:00;7.20;;;5.10;;
9665;SDS011;4871;52.004;5.924;2022-10-31T01:08:00;7.20;;;5.10;;
9665;SDS011;4871;52.004;5.924;2022-10-31T01:09:00;7.20;;;5.10;;
9665;SDS011;4871;52.004;5.924;2022-10-31T01:10:00;7.20;;;5.10;;
9665;SDS011;4871;52.004;5.924;2022-10-31T01:11:01;7.20;;;5.10;;
9665;SDS011;4871;52.004;5.924;2022-10-31T01:12:00;7.20;;;5.10;;
9665;SDS011;4871;52.004;5.924;2022-10-31T01:13:00;7.20;;;5.10;;
9665;SDS011;4871;52.004;5.924;2022-10-31T01:14:00;7.20;;;5.10;;
9665;SDS011;4871;52.004;5.924;2022-10-31T01:15:00;7.20;;;5.10;;
9665;SDS011;4871;52.004;5.924;2022-10-31T01:16:00;7.20;;;5.10;;
9665;SDS011;4871;52.004;5.924;2022-10-31T01:17:00;7.20;;;5.10;;
9665;SDS011;4871;52.004;5.924;2022-10-31T01:18:00;7.20;;;5.10;;
9665;SDS011;4871;52.004;5.924;2022-10-31T01:19:00;7.20;;;5.10;;
9665;SDS011;4871;52.004;5.924;2022-10-31T01:20:00;7.20;;;5.10;;
9665;SDS011;4871;52.004;5.924;2022-10-31T01:21:00;6.40;;;4.80;;
9665;SDS011;4871;52.004;5.924;2022-10-31T01:22:00;6.40;;;4.80;;
9665;SDS011;4871;52.004;5.924;2022-10-31T01:23:00;6.40;;;4.80;;
9665;SDS011;4871;52.004;5.924;2022-10-31T01:24:01;6.40;;;4.80;;
9665;SDS011;4871;52.004;5.924;2022-10-31T01:25:00;6.40;;;4.80;;
9665;SDS011;4871;52.004;5.924;2022-10-31T01:27:00;6.40;;;4.80;;
9665;SDS011;4871;52.004;5.924;2022-10-31T01:28:00;6.40;;;4.80;;
9665;SDS011;4871;52.004;5.924;2022-10-31T01:29:01;6.40;;;4.80;;
9665;SDS011;4871;52.004;5.924;2022-10-31T01:30:00;6.40;;;4.80;;
9665;SDS011;4871;52.004;5.924;2022-10-31T01:31:00;6.40;;;4.80;;
9665;SDS011;4871;52.004;5.924;2022-10-31T01:32:00;6.40;;;4.80;;
9665;SDS011;4871;52.004;5.924;2022-10-31T01:33:00;6.40;;;4.80;;
9665;SDS011;4871;52.004;5.924;2022-10-31T01:34:00;6.40;;;4.80;;
9665;SDS011;4871;52.004;5.924;2022-10-31T01:35:00;6.40;;;4.80;;
9665;SDS011;4871;52.004;5.924;2022-10-31T01:36:00;6.40;;;4.80;;
9665;SDS011;4871;52.004;5.924;2022-10-31T01:37:00;6.40;;;4.80;;
9665;SDS011;4871;52.004;5.924;2022-10-31T01:38:00;6.40;;;4.80;;
9665;SDS011;4871;52.004;5.924;2022-10-31T01:39:05;6.40;;;4.80;;
9665;SDS011;4871;52.004;5.924;2022-10-31T01:40:00;6.40;;;4.80;;
9665;SDS011;4871;52.004;5.924;2022-10-31T01:41:00;6.40;;;4.80;;
9665;SDS011;4871;52.004;5.924;2022-10-31T01:42:00;6.40;;;4.80;;
9665;SDS011;4871;52.004;5.924;2022-10-31T01:43:00;6.40;;;4.80;;
9665;SDS011;4871;52.004;5.924;2022-10-31T01:44:01;6.40;;;4.80;;
9665;SDS011;4871;52.004;5.924;2022-10-31T01:45:00;6.40;;;4.80;;
9665;SDS011;4871;52.004;5.924;2022-10-31T01:46:00;6.40;;;4.80;;
9665;SDS011;4871;52.004;5.924;2022-10-31T01:47:03;6.40;;;4.80;;
9665;SDS011;4871;52.004;5.924;2022-10-31T01:48:00;6.40;;;4.80;;
9665;SDS011;4871;52.004;5.924;2022-10-31T01:49:00;6.40;;;4.80;;
9665;SDS011;4871;52.004;5.924;2022-10-31T01:50:00;6.40;;;4.80;;
9665;SDS011;4871;52.004;5.924;2022-10-31T01:51:00;5.90;;;3.60;;
9665;SDS011;4871;52.004;5.924;2022-10-31T01:52:01;5.90;;;3.60;;
9665;SDS011;4871;52.004;5.924;2022-10-31T01:53:00;5.90;;;3.60;;
9665;SDS011;4871;52.004;5.924;2022-10-31T01:54:01;5.90;;;3.60;;
9665;SDS011;4871;52.004;5.924;2022-10-31T01:55:05;5.90;;;3.60;;
9665;SDS011;4871;52.004;5.924;2022-10-31T01:56:00;5.90;;;3.60;;
9665;SDS011;4871;52.004;5.924;2022-10-31T01:57:00;5.90;;;3.60;;
9665;SDS011;4871;52.004;5.924;2022-10-31T01:58:04;5.90;;;3.60;;
9665;SDS011;4871;52.004;5.924;2022-10-31T01:59:00;5.90;;;3.60;;
9665;SDS011;4871;52.004;5.924;2022-10-31T02:00:01;5.90;;;3.60;;
9665;SDS011;4871;52.004;5.924;2022-10-31T02:01:00;5.90;;;3.60;;
9665;SDS011;4871;52.004;5.924;2022-10-31T02:02:00;5.90;;;3.60;;
9665;SDS011;4871;52.004;5.924;2022-10-31T02:03:00;5.90;;;3.60;;
9665;SDS011;4871;52.004;5.924;2022-10-31T02:04:00;5.90;;;3.60;;
9665;SDS011;4871;52.004;5.924;2022-10-31T02:05:01;5.90;;;3.60;;
9665;SDS011;4871;52.004;5.924;2022-10-31T02:06:00;5.90;;;3.60;;
9665;SDS011;4871;52.004;5.924;2022-10-31T02:07:02;5.90;;;3.60;;
9665;SDS011;4871;52.004;5.924;2022-10-31T02:08:08;5.90;;;3.60;;
9665;SDS011;4871;52.004;5.924;2022-10-31T02:09:00;5.90;;;3.60;;
9665;SDS011;4871;52.004;5.924;2022-10-31T02:10:00;5.90;;;3.60;;
9665;SDS011;4871;52.004;5.924;2022-10-31T02:11:00;5.90;;;3.60;;
9665;SDS011;4871;52.004;5.924;2022-10-31T02:12:00;5.90;;;3.60;;
9665;SDS011;4871;52.004;5.924;2022-10-31T02:13:01;5.90;;;3.60;;
9665;SDS011;4871;52.004;5.924;2022-10-31T02:14:00;5.90;;;3.60;;
9665;SDS011;4871;52.004;5.924;2022-10-31T02:15:00;5.90;;;3.60;;
9665;SDS011;4871;52.004;5.924;2022-10-31T02:16:00;5.90;;;3.60;;
9665;SDS011;4871;52.004;5.924;2022-10-31T02:17:00;5.90;;;3.60;;
9665;SDS011;4871;52.004;5.924;2022-10-31T02:18:00;5.90;;;3.60;;
9665;SDS011;4871;52.004;5.924;2022-10-31T02:19:00;5.90;;;3.60;;
9665;SDS011;4871;52.004;5.924;2022-10-31T02:20:05;5.90;;;3.60;;
9665;SDS011;4871;52.004;5.924;2022-10-31T02:21:03;3.80;;;3.10;;
9665;SDS011;4871;52.004;5.924;2022-10-31T02:24:05;3.80;;;3.10;;
9665;SDS011;4871;52.004;5.924;2022-10-31T02:25:12;3.80;;;3.10;;
9665;SDS011;4871;52.004;5.924;2022-10-31T02:28:03;3.80;;;3.10;;
9665;SDS011;4871;52.004;5.924;2022-10-31T02:29:05;3.80;;;3.10;;
9665;SDS011;4871;52.004;5.924;2022-10-31T02:31:18;3.80;;;3.10;;
9665;SDS011;4871;52.004;5.924;2022-10-31T02:32:09;3.80;;;3.10;;
9665;SDS011;4871;52.004;5.924;2022-10-31T02:33:03;3.80;;;3.10;;
9665;SDS011;4871;52.004;5.924;2022-10-31T02:34:03;3.80;;;3.10;;
9665;SDS011;4871;52.004;5.924;2022-10-31T02:36:03;3.80;;;3.10;;
9665;SDS011;4871;52.004;5.924;2022-10-31T02:39:02;3.80;;;3.10;;
9665;SDS011;4871;52.004;5.924;2022-10-31T02:41:03;3.80;;;3.10;;
9665;SDS011;4871;52.004;5.924;2022-10-31T02:43:02;3.80;;;3.10;;
9665;SDS011;4871;52.004;5.924;2022-10-31T02:44:09;3.80;;;3.10;;
9665;SDS011;4871;52.004;5.924;2022-10-31T02:45:08;3.80;;;3.10;;
9665;SDS011;4871;52.004;5.924;2022-10-31T02:46:03;3.80;;;3.10;;
9665;SDS011;4871;52.004;5.924;2022-10-31T02:48:01;3.80;;;3.10;;
9665;SDS011;4871;52.004;5.924;2022-10-31T02:49:01;3.80;;;3.10;;
9665;SDS011;4871;52.004;5.924;2022-10-31T02:50:01;3.80;;;3.10;;
9665;SDS011;4871;52.004;5.924;2022-10-31T02:51:00;5.20;;;3.80;;
9665;SDS011;4871;52.004;5.924;2022-10-31T02:52:00;5.20;;;3.80;;
9665;SDS011;4871;52.004;5.924;2022-10-31T02:53:00;5.20;;;3.80;;
9665;SDS011;4871;52.004;5.924;2022-10-31T02:54:00;5.20;;;3.80;;
9665;SDS011;4871;52.004;5.924;2022-10-31T02:56:01;5.20;;;3.80;;
9665;SDS011;4871;52.004;5.924;2022-10-31T02:57:01;5.20;;;3.80;;
9665;SDS011;4871;52.004;5.924;2022-10-31T02:58:01;5.20;;;3.80;;
9665;SDS011;4871;52.004;5.924;2022-10-31T02:59:00;5.20;;;3.80;;
9665;SDS011;4871;52.004;5.924;2022-10-31T03:00:01;5.20;;;3.80;;
9665;SDS011;4871;52.004;5.924;2022-10-31T03:01:19;5.20;;;3.80;;
9665;SDS011;4871;52.004;5.924;2022-10-31T03:03:01;5.20;;;3.80;;
9665;SDS011;4871;52.004;5.924;2022-10-31T03:07:03;5.20;;;3.80;;
9665;SDS011;4871;52.004;5.924;2022-10-31T03:08:19;5.20;;;3.80;;
9665;SDS011;4871;52.004;5.924;2022-10-31T03:09:03;5.20;;;3.80;;
9665;SDS011;4871;52.004;5.924;2022-10-31T03:11:00;5.20;;;3.80;;
9665;SDS011;4871;52.004;5.924;2022-10-31T03:12:04;5.20;;;3.80;;
9665;SDS011;4871;52.004;5.924;2022-10-31T03:13:06;5.20;;;3.80;;
9665;SDS011;4871;52.004;5.924;2022-10-31T03:14:01;5.20;;;3.80;;
9665;SDS011;4871;52.004;5.924;2022-10-31T03:15:12;5.20;;;3.80;;
9665;SDS011;4871;52.004;5.924;2022-10-31T03:17:01;5.20;;;3.80;;
9665;SDS011;4871;52.004;5.924;2022-10-31T03:18:01;5.20;;;3.80;;
9665;SDS011;4871;52.004;5.924;2022-10-31T03:19:01;5.20;;;3.80;;
9665;SDS011;4871;52.004;5.924;2022-10-31T03:20:00;5.20;;;3.80;;
9665;SDS011;4871;52.004;5.924;2022-10-31T03:22:01;4.90;;;3.80;;
9665;SDS011;4871;52.004;5.924;2022-10-31T03:23:00;4.90;;;3.80;;
9665;SDS011;4871;52.004;5.924;2022-10-31T03:24:00;4.90;;;3.80;;
9665;SDS011;4871;52.004;5.924;2022-10-31T03:25:00;4.90;;;3.80;;
9665;SDS011;4871;52.004;5.924;2022-10-31T03:26:00;4.90;;;3.80;;
9665;SDS011;4871;52.004;5.924;2022-10-31T03:27:00;4.90;;;3.80;;
9665;SDS011;4871;52.004;5.924;2022-10-31T03:28:00;4.90;;;3.80;;
9665;SDS011;4871;52.004;5.924;2022-10-31T03:29:01;4.90;;;3.80;;
9665;SDS011;4871;52.004;5.924;2022-10-31T03:30:01;4.90;;;3.80;;
9665;SDS011;4871;52.004;5.924;2022-10-31T03:31:00;4.90;;;3.80;;
9665;SDS011;4871;52.004;5.924;2022-10-31T03:32:01;4.90;;;3.80;;
9665;SDS011;4871;52.004;5.924;2022-10-31T03:33:00;4.90;;;3.80;;
9665;SDS011;4871;52.004;5.924;2022-10-31T03:34:00;4.90;;;3.80;;
9665;SDS011;4871;52.004;5.924;2022-10-31T03:35:00;4.90;;;3.80;;
9665;SDS011;4871;52.004;5.924;2022-10-31T03:36:00;4.90;;;3.80;;
9665;SDS011;4871;52.004;5.924;2022-10-31T03:37:00;4.90;;;3.80;;
9665;SDS011;4871;52.004;5.924;2022-10-31T03:38:00;4.90;;;3.80;;
9665;SDS011;4871;52.004;5.924;2022-10-31T03:39:00;4.90;;;3.80;;
9665;SDS011;4871;52.004;5.924;2022-10-31T03:40:00;4.90;;;3.80;;
9665;SDS011;4871;52.004;5.924;2022-10-31T03:41:00;4.90;;;3.80;;
9665;SDS011;4871;52.004;5.924;2022-10-31T03:42:02;4.90;;;3.80;;
9665;SDS011;4871;52.004;5.924;2022-10-31T03:43:03;4.90;;;3.80;;
9665;SDS011;4871;52.004;5.924;2022-10-31T03:44:02;4.90;;;3.80;;
9665;SDS011;4871;52.004;5.924;2022-10-31T03:45:17;4.90;;;3.80;;
9665;SDS011;4871;52.004;5.924;2022-10-31T03:46:00;4.90;;;3.80;;
9665;SDS011;4871;52.004;5.924;2022-10-31T03:47:00;4.90;;;3.80;;
9665;SDS011;4871;52.004;5.924;2022-10-31T03:48:00;4.90;;;3.80;;
9665;SDS011;4871;52.004;5.924;2022-10-31T03:49:00;4.90;;;3.80;;
9665;SDS011;4871;52.004;5.924;2022-10-31T03:50:00;4.90;;;3.80;;
9665;SDS011;4871;52.004;5.924;2022-10-31T03:51:05;6.30;;;4.50;;
9665;SDS011;4871;52.004;5.924;2022-10-31T03:53:03;6.30;;;4.50;;
9665;SDS011;4871;52.004;5.924;2022-10-31T03:54:05;6.30;;;4.50;;
9665;SDS011;4871;52.004;5.924;2022-10-31T03:56:02;6.30;;;4.50;;
9665;SDS011;4871;52.004;5.924;2022-10-31T03:57:02;6.30;;;4.50;;
9665;SDS011;4871;52.004;5.924;2022-10-31T03:58:02;6.30;;;4.50;;
9665;SDS011;4871;52.004;5.924;2022-10-31T03:59:02;6.30;;;4.50;;
9665;SDS011;4871;52.004;5.924;2022-10-31T04:00:03;6.30;;;4.50;;
9665;SDS011;4871;52.004;5.924;2022-10-31T04:01:00;6.30;;;4.50;;
9665;SDS011;4871;52.004;5.924;2022-10-31T04:02:02;6.30;;;4.50;;
9665;SDS011;4871;52.004;5.924;2022-10-31T04:04:00;6.30;;;4.50;;
9665;SDS011;4871;52.004;5.924;2022-10-31T04:05:00;6.30;;;4.50;;
9665;SDS011;4871;52.004;5.924;2022-10-31T04:06:01;6.30;;;4.50;;
9665;SDS011;4871;52.004;5.924;2022-10-31T04:07:00;6.30;;;4.50;;
9665;SDS011;4871;52.004;5.924;2022-10-31T04:08:00;6.30;;;4.50;;
9665;SDS011;4871;52.004;5.924;2022-10-31T04:09:00;6.30;;;4.50;;
9665;SDS011;4871;52.004;5.924;2022-10-31T04:10:00;6.30;;;4.50;;
9665;SDS011;4871;52.004;5.924;2022-10-31T04:11:01;6.30;;;4.50;;
9665;SDS011;4871;52.004;5.924;2022-10-31T04:12:00;6.30;;;4.50;;
9665;SDS011;4871;52.004;5.924;2022-10-31T04:13:01;6.30;;;4.50;;
9665;SDS011;4871;52.004;5.924;2022-10-31T04:14:00;6.30;;;4.50;;
9665;SDS011;4871;52.004;5.924;2022-10-31T04:15:00;6.30;;;4.50;;
9665;SDS011;4871;52.004;5.924;2022-10-31T04:16:00;6.30;;;4.50;;
9665;SDS011;4871;52.004;5.924;2022-10-31T04:17:00;6.30;;;4.50;;
9665;SDS011;4871;52.004;5.924;2022-10-31T04:18:00;6.30;;;4.50;;
9665;SDS011;4871;52.004;5.924;2022-10-31T04:19:00;6.30;;;4.50;;
9665;SDS011;4871;52.004;5.924;2022-10-31T04:20:00;6.30;;;4.50;;
9665;SDS011;4871;52.004;5.924;2022-10-31T04:21:02;6.30;;;4.40;;
9665;SDS011;4871;52.004;5.924;2022-10-31T04:22:00;6.30;;;4.40;;
9665;SDS011;4871;52.004;5.924;2022-10-31T04:23:00;6.30;;;4.40;;
9665;SDS011;4871;52.004;5.924;2022-10-31T04:24:00;6.30;;;4.40;;
9665;SDS011;4871;52.004;5.924;2022-10-31T04:25:00;6.30;;;4.40;;
9665;SDS011;4871;52.004;5.924;2022-10-31T04:26:00;6.30;;;4.40;;
9665;SDS011;4871;52.004;5.924;2022-10-31T04:27:00;6.30;;;4.40;;
9665;SDS011;4871;52.004;5.924;2022-10-31T04:28:00;6.30;;;4.40;;
9665;SDS011;4871;52.004;5.924;2022-10-31T04:29:00;6.30;;;4.40;;
9665;SDS011;4871;52.004;5.924;2022-10-31T04:30:00;6.30;;;4.40;;
9665;SDS011;4871;52.004;5.924;2022-10-31T04:31:00;6.30;;;4.40;;
9665;SDS011;4871;52.004;5.924;2022-10-31T04:32:00;6.30;;;4.40;;
9665;SDS011;4871;52.004;5.924;2022-10-31T04:33:00;6.30;;;4.40;;
9665;SDS011;4871;52.004;5.924;2022-10-31T04:34:00;6.30;;;4.40;;
9665;SDS011;4871;52.004;5.924;2022-10-31T04:35:00;6.30;;;4.40;;
9665;SDS011;4871;52.004;5.924;2022-10-31T04:36:00;6.30;;;4.40;;
9665;SDS011;4871;52.004;5.924;2022-10-31T04:37:00;6.30;;;4.40;;
9665;SDS011;4871;52.004;5.924;2022-10-31T04:38:00;6.30;;;4.40;;
9665;SDS011;4871;52.004;5.924;2022-10-31T04:39:00;6.30;;;4.40;;
9665;SDS011;4871;52.004;5.924;2022-10-31T04:40:00;6.30;;;4.40;;
9665;SDS011;4871;52.004;5.924;2022-10-31T04:41:00;6.30;;;4.40;;
9665;SDS011;4871;52.004;5.924;2022-10-31T04:42:00;6.30;;;4.40;;
9665;SDS011;4871;52.004;5.924;2022-10-31T04:43:00;6.30;;;4.40;;
9665;SDS011;4871;52.004;5.924;2022-10-31T04:44:00;6.30;;;4.40;;
9665;SDS011;4871;52.004;5.924;2022-10-31T04:45:00;6.30;;;4.40;;
9665;SDS011;4871;52.004;5.924;2022-10-31T04:46:00;6.30;;;4.40;;
9665;SDS011;4871;52.004;5.924;2022-10-31T04:47:00;6.30;;;4.40;;
9665;SDS011;4871;52.004;5.924;2022-10-31T04:48:00;6.30;;;4.40;;
9665;SDS011;4871;52.004;5.924;2022-10-31T04:49:00;6.30;;;4.40;;
9665;SDS011;4871;52.004;5.924;2022-10-31T04:50:00;6.30;;;4.40;;
9665;SDS011;4871;52.004;5.924;2022-10-31T04:51:00;7.00;;;4.40;;
9665;SDS011;4871;52.004;5.924;2022-10-31T04:52:00;7.00;;;4.40;;
9665;SDS011;4871;52.004;5.924;2022-10-31T04:53:00;7.00;;;4.40;;
9665;SDS011;4871;52.004;5.924;2022-10-31T04:54:00;7.00;;;4.40;;
9665;SDS011;4871;52.004;5.924;2022-10-31T04:55:00;7.00;;;4.40;;
9665;SDS011;4871;52.004;5.924;2022-10-31T04:56:00;7.00;;;4.40;;
9665;SDS011;4871;52.004;5.924;2022-10-31T04:57:00;7.00;;;4.40;;
9665;SDS011;4871;52.004;5.924;2022-10-31T04:58:00;7.00;;;4.40;;
9665;SDS011;4871;52.004;5.924;2022-10-31T04:59:00;7.00;;;4.40;;
9665;SDS011;4871;52.004;5.924;2022-10-31T05:00:00;7.00;;;4.40;;
9665;SDS011;4871;52.004;5.924;2022-10-31T05:01:00;7.00;;;4.40;;
9665;SDS011;4871;52.004;5.924;2022-10-31T05:02:00;7.00;;;4.40;;
9665;SDS011;4871;52.004;5.924;2022-10-31T05:03:00;7.00;;;4.40;;
9665;SDS011;4871;52.004;5.924;2022-10-31T05:04:00;7.00;;;4.40;;
9665;SDS011;4871;52.004;5.924;2022-10-31T05:05:00;7.00;;;4.40;;
9665;SDS011;4871;52.004;5.924;2022-10-31T05:06:00;7.00;;;4.40;;
9665;SDS011;4871;52.004;5.924;2022-10-31T05:07:00;7.00;;;4.40;;
9665;SDS011;4871;52.004;5.924;2022-10-31T05:08:00;7.00;;;4.40;;
9665;SDS011;4871;52.004;5.924;2022-10-31T05:09:00;7.00;;;4.40;;
9665;SDS011;4871;52.004;5.924;2022-10-31T05:10:00;7.00;;;4.40;;
9665;SDS011;4871;52.004;5.924;2022-10-31T05:11:01;7.00;;;4.40;;
9665;SDS011;4871;52.004;5.924;2022-10-31T05:12:00;7.00;;;4.40;;
9665;SDS011;4871;52.004;5.924;2022-10-31T05:13:00;7.00;;;4.40;;
9665;SDS011;4871;52.004;5.924;2022-10-31T05:14:00;7.00;;;4.40;;
9665;SDS011;4871;52.004;5.924;2022-10-31T05:15:00;7.00;;;4.40;;
9665;SDS011;4871;52.004;5.924;2022-10-31T05:16:00;7.00;;;4.40;;
9665;SDS011;4871;52.004;5.924;2022-10-31T05:17:00;7.00;;;4.40;;
9665;SDS011;4871;52.004;5.924;2022-10-31T05:18:00;7.00;;;4.40;;
9665;SDS011;4871;52.004;5.924;2022-10-31T05:19:00;7.00;;;4.40;;
9665;SDS011;4871;52.004;5.924;2022-10-31T05:20:00;7.00;;;4.40;;
9665;SDS011;4871;52.004;5.924;2022-10-31T05:21:00;9.00;;;6.20;;
9665;SDS011;4871;52.004;5.924;2022-10-31T05:22:00;9.00;;;6.20;;
9665;SDS011;4871;52.004;5.924;2022-10-31T05:23:00;9.00;;;6.20;;
9665;SDS011;4871;52.004;5.924;2022-10-31T05:24:00;9.00;;;6.20;;
9665;SDS011;4871;52.004;5.924;2022-10-31T05:25:00;9.00;;;6.20;;
9665;SDS011;4871;52.004;5.924;2022-10-31T05:26:00;9.00;;;6.20;;
9665;SDS011;4871;52.004;5.924;2022-10-31T05:27:00;9.00;;;6.20;;
9665;SDS011;4871;52.004;5.924;2022-10-31T05:28:00;9.00;;;6.20;;
9665;SDS011;4871;52.004;5.924;2022-10-31T05:29:00;9.00;;;6.20;;
9665;SDS011;4871;52.004;5.924;2022-10-31T05:30:00;9.00;;;6.20;;
9665;SDS011;4871;52.004;5.924;2022-10-31T05:31:00;9.00;;;6.20;;
9665;SDS011;4871;52.004;5.924;2022-10-31T05:32:00;9.00;;;6.20;;
9665;SDS011;4871;52.004;5.924;2022-10-31T05:33:00;9.00;;;6.20;;
9665;SDS011;4871;52.004;5.924;2022-10-31T05:34:00;9.00;;;6.20;;
9665;SDS011;4871;52.004;5.924;2022-10-31T05:35:00;9.00;;;6.20;;
9665;SDS011;4871;52.004;5.924;2022-10-31T05:36:00;9.00;;;6.20;;
9665;SDS011;4871;52.004;5.924;2022-10-31T05:37:00;9.00;;;6.20;;
9665;SDS011;4871;52.004;5.924;2022-10-31T05:38:00;9.00;;;6.20;;
9665;SDS011;4871;52.004;5.924;2022-10-31T05:39:00;9.00;;;6.20;;
9665;SDS011;4871;52.004;5.924;2022-10-31T05:40:00;9.00;;;6.20;;
9665;SDS011;4871;52.004;5.924;2022-10-31T05:41:01;9.00;;;6.20;;
9665;SDS011;4871;52.004;5.924;2022-10-31T05:42:00;9.00;;;6.20;;
9665;SDS011;4871;52.004;5.924;2022-10-31T05:43:00;9.00;;;6.20;;
9665;SDS011;4871;52.004;5.924;2022-10-31T05:44:00;9.00;;;6.20;;
9665;SDS011;4871;52.004;5.924;2022-10-31T05:45:00;9.00;;;6.20;;
9665;SDS011;4871;52.004;5.924;2022-10-31T05:46:00;9.00;;;6.20;;
9665;SDS011;4871;52.004;5.924;2022-10-31T05:47:00;9.00;;;6.20;;
9665;SDS011;4871;52.004;5.924;2022-10-31T05:48:00;9.00;;;6.20;;
9665;SDS011;4871;52.004;5.924;2022-10-31T05:49:00;9.00;;;6.20;;
9665;SDS011;4871;52.004;5.924;2022-10-31T05:50:00;9.00;;;6.20;;
9665;SDS011;4871;52.004;5.924;2022-10-31T05:51:00;7.10;;;5.10;;
9665;SDS011;4871;52.004;5.924;2022-10-31T05:52:00;7.10;;;5.10;;
9665;SDS011;4871;52.004;5.924;2022-10-31T05:53:01;7.10;;;5.10;;
9665;SDS011;4871;52.004;5.924;2022-10-31T05:54:00;7.10;;;5.10;;
9665;SDS011;4871;52.004;5.924;2022-10-31T05:55:00;7.10;;;5.10;;
9665;SDS011;4871;52.004;5.924;2022-10-31T05:56:00;7.10;;;5.10;;
9665;SDS011;4871;52.004;5.924;2022-10-31T05:57:00;7.10;;;5.10;;
9665;SDS011;4871;52.004;5.924;2022-10-31T05:58:00;7.10;;;5.10;;
9665;SDS011;4871;52.004;5.924;2022-10-31T05:59:00;7.10;;;5.10;;
9665;SDS011;4871;52.004;5.924;2022-10-31T06:00:00;7.10;;;5.10;;
9665;SDS011;4871;52.004;5.924;2022-10-31T06:01:00;7.10;;;5.10;;
9665;SDS011;4871;52.004;5.924;2022-10-31T06:02:00;7.10;;;5.10;;
9665;SDS011;4871;52.004;5.924;2022-10-31T06:03:02;7.10;;;5.10;;
9665;SDS011;4871;52.004;5.924;2022-10-31T06:04:00;7.10;;;5.10;;
9665;SDS011;4871;52.004;5.924;2022-10-31T06:05:00;7.10;;;5.10;;
9665;SDS011;4871;52.004;5.924;2022-10-31T06:06:00;7.10;;;5.10;;
9665;SDS011;4871;52.004;5.924;2022-10-31T06:07:00;7.10;;;5.10;;
9665;SDS011;4871;52.004;5.924;2022-10-31T06:08:00;7.10;;;5.10;;
9665;SDS011;4871;52.004;5.924;2022-10-31T06:09:00;7.10;;;5.10;;
9665;SDS011;4871;52.004;5.924;2022-10-31T06:10:00;7.10;;;5.10;;
9665;SDS011;4871;52.004;5.924;2022-10-31T06:11:00;7.10;;;5.10;;
9665;SDS011;4871;52.004;5.924;2022-10-31T06:12:00;7.10;;;5.10;;
9665;SDS011;4871;52.004;5.924;2022-10-31T06:13:00;7.10;;;5.10;;
9665;SDS011;4871;52.004;5.924;2022-10-31T06:14:00;7.10;;;5.10;;
9665;SDS011;4871;52.004;5.924;2022-10-31T06:15:00;7.10;;;5.10;;
9665;SDS011;4871;52.004;5.924;2022-10-31T06:16:00;7.10;;;5.10;;
9665;SDS011;4871;52.004;5.924;2022-10-31T06:17:00;7.10;;;5.10;;
9665;SDS011;4871;52.004;5.924;2022-10-31T06:18:01;7.10;;;5.10;;
9665;SDS011;4871;52.004;5.924;2022-10-31T06:19:00;7.10;;;5.10;;
9665;SDS011;4871;52.004;5.924;2022-10-31T06:20:00;13.00;;;9.10;;
9665;SDS011;4871;52.004;5.924;2022-10-31T06:21:00;13.00;;;9.10;;
9665;SDS011;4871;52.004;5.924;2022-10-31T06:22:00;13.00;;;9.10;;
9665;SDS011;4871;52.004;5.924;2022-10-31T06:23:00;13.00;;;9.10;;
9665;SDS011;4871;52.004;5.924;2022-10-31T06:24:00;13.00;;;9.10;;
9665;SDS011;4871;52.004;5.924;2022-10-31T06:25:00;13.00;;;9.10;;
9665;SDS011;4871;52.004;5.924;2022-10-31T06:26:00;13.00;;;9.10;;
9665;SDS011;4871;52.004;5.924;2022-10-31T06:27:00;13.00;;;9.10;;
9665;SDS011;4871;52.004;5.924;2022-10-31T06:28:00;13.00;;;9.10;;
9665;SDS011;4871;52.004;5.924;2022-10-31T06:29:00;13.00;;;9.10;;
9665;SDS011;4871;52.004;5.924;2022-10-31T06:30:00;13.00;;;9.10;;
9665;SDS011;4871;52.004;5.924;2022-10-31T06:31:00;13.00;;;9.10;;
9665;SDS011;4871;52.004;5.924;2022-10-31T06:32:00;13.00;;;9.10;;
9665;SDS011;4871;52.004;5.924;2022-10-31T06:33:01;13.00;;;9.10;;
9665;SDS011;4871;52.004;5.924;2022-10-31T06:34:00;13.00;;;9.10;;
9665;SDS011;4871;52.004;5.924;2022-10-31T06:35:00;13.00;;;9.10;;
9665;SDS011;4871;52.004;5.924;2022-10-31T06:36:00;13.00;;;9.10;;